Time;durP1;ratioP1;P1;durP2;ratioP2;P2;SDS_P1;SDS_P2;PMS_P1;PMS_P2;Temp;Humidity;BMP_temperature;BMP_pressure;BME280_temperature;BME280_humidity;BME280_pressure;Samples;Min_cycle;Max_cycle;Signal;HPM_P1;HPM_P2
2022/03/08 00:01:39;;;;;;;15.27;9.45;;;;;;;;;;4982729;28;20054;-69
2022/03/08 00:04:05;;;;;;;19.80;10.65;;;;;;;;;;4975762;28;20106;-70
2022/03/08 00:06:32;;;;;;;18.20;10.73;;;;;;;;;;4981192;28;20158;-70
2022/03/08 00:08:58;;;;;;;18.83;11.52;;;;;;;;;;4975161;28;20050;-70
2022/03/08 00:11:24;;;;;;;17.88;10.38;;;;;;;;;;5001340;28;20056;-70
2022/03/08 00:13:51;;;;;;;17.35;9.27;;;;;;;;;;4983361;28;20050;-70
2022/03/08 00:16:18;;;;;;;17.33;10.48;;;;;;;;;;4984046;28;20061;-69
2022/03/08 00:18:45;;;;;;;19.73;11.45;;;;;;;;;;4981630;28;20148;-69
2022/03/08 00:21:11;;;;;;;17.40;10.68;;;;;;;;;;4998051;28;20047;-70
2022/03/08 00:23:38;;;;;;;17.25;10.32;;;;;;;;;;4985356;28;20038;-70
2022/03/08 00:26:05;;;;;;;17.23;10.57;;;;;;;;;;4977204;28;20129;-70
2022/03/08 00:28:32;;;;;;;16.40;10.73;;;;;;;;;;4994444;28;20054;-70
2022/03/08 00:30:58;;;;;;;18.42;10.95;;;;;;;;;;4976855;28;20083;-71
2022/03/08 00:33:25;;;;;;;19.35;11.60;;;;;;;;;;4978708;28;20620;-70
2022/03/08 00:35:52;;;;;;;16.60;10.13;;;;;;;;;;4979246;28;20054;-70
2022/03/08 00:38:18;;;;;;;16.42;9.90;;;;;;;;;;4990074;28;20050;-70
2022/03/08 00:40:45;;;;;;;16.40;9.85;;;;;;;;;;4985989;28;20416;-70
2022/03/08 00:43:11;;;;;;;14.50;9.65;;;;;;;;;;4980827;28;20054;-70
2022/03/08 00:45:37;;;;;;;16.92;10.18;;;;;;;;;;4981408;28;20061;-69
2022/03/08 00:48:04;;;;;;;14.73;9.48;;;;;;;;;;4984339;28;20092;-70
2022/03/08 00:50:31;;;;;;;17.20;10.23;;;;;;;;;;4980139;28;20050;-70
2022/03/08 00:52:57;;;;;;;17.10;9.63;;;;;;;;;;4981012;28;20042;-70
2022/03/08 00:55:25;;;;;;;21.25;10.52;;;;;;;;;;4979613;28;20050;-71
2022/03/08 00:57:51;;;;;;;17.70;10.10;;;;;;;;;;4982484;28;20050;-70
2022/03/08 01:00:19;;;;;;;16.70;9.80;;;;;;;;;;4982281;28;20761;-69
2022/03/08 01:02:46;;;;;;;19.08;10.70;;;;;;;;;;4983231;28;20054;-70
2022/03/08 01:05:12;;;;;;;18.13;9.35;;;;;;;;;;4981211;28;20046;-70
2022/03/08 01:07:38;;;;;;;14.95;10.05;;;;;;;;;;4979440;28;20571;-70
2022/03/08 01:10:06;;;;;;;17.92;10.10;;;;;;;;;;4988279;28;20057;-70
2022/03/08 01:12:33;;;;;;;17.02;9.57;;;;;;;;;;4982977;28;20042;-70
2022/03/08 01:15:01;;;;;;;18.00;10.45;;;;;;;;;;4987405;28;20050;-70
2022/03/08 01:17:28;;;;;;;16.17;10.18;;;;;;;;;;4972784;28;20334;-70
2022/03/08 01:19:54;;;;;;;18.58;9.68;;;;;;;;;;4984504;28;20057;-69
2022/03/08 01:22:20;;;;;;;21.35;10.43;;;;;;;;;;4990604;28;20050;-70
2022/03/08 01:24:46;;;;;;;16.50;9.93;;;;;;;;;;4973524;28;20069;-69
2022/03/08 01:27:13;;;;;;;15.32;9.25;;;;;;;;;;4979416;28;20069;-69
2022/03/08 01:29:39;;;;;;;16.90;9.48;;;;;;;;;;4977939;28;20054;-70
2022/03/08 01:32:06;;;;;;;16.40;9.30;;;;;;;;;;4975858;28;20100;-69
2022/03/08 01:34:34;;;;;;;15.88;9.63;;;;;;;;;;4975668;28;20519;-69
2022/03/08 01:37:03;;;;;;;16.88;9.25;;;;;;;;;;4981817;28;20049;-69
2022/03/08 01:39:30;;;;;;;18.95;9.15;;;;;;;;;;4974509;28;20197;-69
2022/03/08 01:41:56;;;;;;;14.15;9.07;;;;;;;;;;4973336;28;20062;-70
2022/03/08 01:44:22;;;;;;;16.65;8.73;;;;;;;;;;4999150;28;20483;-69
2022/03/08 01:46:49;;;;;;;16.33;9.32;;;;;;;;;;4982352;28;20488;-69
2022/03/08 01:49:15;;;;;;;15.70;8.45;;;;;;;;;;4980991;28;20766;-69
2022/03/08 01:51:43;;;;;;;16.00;9.52;;;;;;;;;;4971258;28;20054;-70
2022/03/08 01:54:09;;;;;;;17.08;9.50;;;;;;;;;;4980242;28;20065;-69
2022/03/08 01:56:36;;;;;;;14.55;8.85;;;;;;;;;;4980280;28;20158;-69
2022/03/08 01:59:03;;;;;;;14.27;8.98;;;;;;;;;;4973070;28;20054;-69
2022/03/08 02:01:29;;;;;;;15.82;8.80;;;;;;;;;;4985551;28;20073;-70
2022/03/08 02:03:56;;;;;;;16.67;8.77;;;;;;;;;;4974493;28;20691;-69
2022/03/08 02:06:22;;;;;;;13.43;8.63;;;;;;;;;;4989219;28;20049;-70
2022/03/08 02:08:49;;;;;;;14.25;7.75;;;;;;;;;;4983291;28;20050;-70
2022/03/08 02:11:15;;;;;;;15.20;8.20;;;;;;;;;;4975069;28;20428;-70
2022/03/08 02:13:43;;;;;;;13.18;8.35;;;;;;;;;;4980306;28;20065;-70
2022/03/08 02:16:14;;;;;;;13.48;8.50;;;;;;;;;;4979874;28;20057;-71
2022/03/08 02:18:41;;;;;;;13.00;8.02;;;;;;;;;;4977417;28;20130;-70
2022/03/08 02:21:08;;;;;;;12.52;8.35;;;;;;;;;;4973889;28;20054;-69
2022/03/08 02:23:34;;;;;;;16.08;8.85;;;;;;;;;;4983983;28;20049;-70
2022/03/08 02:26:01;;;;;;;13.88;7.75;;;;;;;;;;4977436;28;20660;-70
2022/03/08 02:28:29;;;;;;;14.32;8.25;;;;;;;;;;4985895;28;20054;-70
2022/03/08 02:30:55;;;;;;;14.50;8.00;;;;;;;;;;4983374;28;20079;-70
2022/03/08 02:33:22;;;;;;;9.93;7.22;;;;;;;;;;4973793;28;20578;-70
2022/03/08 02:35:48;;;;;;;13.23;7.25;;;;;;;;;;4978966;28;20102;-70
2022/03/08 02:38:15;;;;;;;14.55;7.50;;;;;;;;;;4974757;28;20059;-69
2022/03/08 02:40:43;;;;;;;10.63;6.93;;;;;;;;;;4981780;28;20054;-70
2022/03/08 02:43:10;;;;;;;11.40;7.63;;;;;;;;;;4978951;28;20069;-70
2022/03/08 02:45:37;;;;;;;14.40;7.90;;;;;;;;;;4978677;28;20047;-70
2022/03/08 02:48:04;;;;;;;13.63;7.20;;;;;;;;;;4975234;28;20294;-70
2022/03/08 02:50:30;;;;;;;12.50;6.97;;;;;;;;;;4961985;28;20055;-70
2022/03/08 02:52:57;;;;;;;13.18;7.45;;;;;;;;;;4974704;28;20065;-70
2022/03/08 02:55:25;;;;;;;13.65;7.68;;;;;;;;;;4985125;28;20062;-69
2022/03/08 02:57:52;;;;;;;13.00;7.43;;;;;;;;;;4982036;28;20042;-70
2022/03/08 03:00:19;;;;;;;11.38;6.97;;;;;;;;;;4966674;28;20049;-69
2022/03/08 03:02:46;;;;;;;11.82;7.00;;;;;;;;;;4977522;28;20042;-69
2022/03/08 03:05:13;;;;;;;11.85;6.88;;;;;;;;;;4985197;28;20054;-69
2022/03/08 03:07:39;;;;;;;11.98;6.60;;;;;;;;;;4977081;28;20826;-69
2022/03/08 03:10:06;;;;;;;10.13;6.85;;;;;;;;;;4983904;28;20050;-70
2022/03/08 03:12:33;;;;;;;10.35;6.10;;;;;;;;;;4979950;28;20054;-70
2022/03/08 03:14:59;;;;;;;13.15;6.57;;;;;;;;;;4981013;28;20689;-71
2022/03/08 03:17:26;;;;;;;13.88;6.75;;;;;;;;;;4978172;28;20049;-71
2022/03/08 03:19:52;;;;;;;12.45;6.55;;;;;;;;;;4984363;28;20061;-70
2022/03/08 03:22:18;;;;;;;10.95;6.07;;;;;;;;;;4989438;28;20054;-70
2022/03/08 03:24:45;;;;;;;9.95;5.57;;;;;;;;;;4978977;28;20045;-71
2022/03/08 03:27:11;;;;;;;10.32;6.10;;;;;;;;;;4998522;28;20049;-70
2022/03/08 03:29:37;;;;;;;9.45;5.25;;;;;;;;;;4971688;28;20515;-70
2022/03/08 03:32:04;;;;;;;9.32;5.78;;;;;;;;;;4982600;28;20050;-70
2022/03/08 03:34:30;;;;;;;11.13;6.18;;;;;;;;;;4978385;28;20062;-69
2022/03/08 03:36:57;;;;;;;9.35;6.20;;;;;;;;;;4978194;28;20137;-70
2022/03/08 03:39:23;;;;;;;12.85;6.22;;;;;;;;;;4988398;28;20060;-70
2022/03/08 03:41:49;;;;;;;9.80;6.10;;;;;;;;;;4975111;28;20488;-71
2022/03/08 03:44:16;;;;;;;9.20;5.72;;;;;;;;;;4983323;28;20061;-70
2022/03/08 03:46:42;;;;;;;9.23;5.95;;;;;;;;;;4976582;28;20048;-70
2022/03/08 03:49:09;;;;;;;11.43;5.88;;;;;;;;;;4995831;28;20092;-70
2022/03/08 03:51:35;;;;;;;10.00;5.93;;;;;;;;;;4984790;28;20054;-70
2022/03/08 03:54:01;;;;;;;13.85;5.60;;;;;;;;;;4983630;28;20054;-70
2022/03/08 03:56:27;;;;;;;9.75;5.40;;;;;;;;;;4978228;28;20046;-70
2022/03/08 03:58:54;;;;;;;10.40;6.15;;;;;;;;;;4976054;28;20052;-69
2022/03/08 04:01:20;;;;;;;9.73;5.88;;;;;;;;;;4988612;28;20061;-70
2022/03/08 04:03:47;;;;;;;10.15;5.63;;;;;;;;;;4979816;28;20050;-70
2022/03/08 04:06:13;;;;;;;9.80;5.88;;;;;;;;;;4987042;28;20450;-70
2022/03/08 04:08:39;;;;;;;8.50;5.40;;;;;;;;;;4981831;28;20046;-70
2022/03/08 04:11:09;;;;;;;9.75;5.78;;;;;;;;;;4981365;28;20492;-70
2022/03/08 04:13:35;;;;;;;11.07;6.05;;;;;;;;;;4983849;28;20105;-70
2022/03/08 04:16:02;;;;;;;9.30;5.80;;;;;;;;;;4980135;28;20054;-70
2022/03/08 04:18:29;;;;;;;9.00;6.18;;;;;;;;;;4983427;28;20498;-70
2022/03/08 04:20:55;;;;;;;9.70;5.90;;;;;;;;;;4979225;28;20057;-70
2022/03/08 04:23:22;;;;;;;10.82;6.18;;;;;;;;;;4986552;28;20050;-70
2022/03/08 04:25:48;;;;;;;12.25;6.43;;;;;;;;;;4962500;28;20445;-70
2022/03/08 04:28:14;;;;;;;9.48;5.95;;;;;;;;;;4987152;28;20433;-70
2022/03/08 04:30:40;;;;;;;10.35;5.93;;;;;;;;;;4985503;28;20055;-69
2022/03/08 04:33:07;;;;;;;8.73;5.38;;;;;;;;;;4965945;28;20059;-70
2022/03/08 04:35:33;;;;;;;9.63;6.20;;;;;;;;;;4980854;28;20077;-69
2022/03/08 04:38:00;;;;;;;9.75;5.30;;;;;;;;;;4992384;28;20127;-69
2022/03/08 04:40:26;;;;;;;9.65;5.78;;;;;;;;;;4980533;28;20046;-69
2022/03/08 04:42:53;;;;;;;9.32;5.63;;;;;;;;;;4989214;28;20053;-70
2022/03/08 04:45:19;;;;;;;9.73;5.47;;;;;;;;;;4976531;28;20794;-70
2022/03/08 04:47:45;;;;;;;8.48;5.50;;;;;;;;;;4972755;28;20092;-70
2022/03/08 04:50:14;;;;;;;9.07;5.95;;;;;;;;;;4971882;28;20710;-70
2022/03/08 04:52:40;;;;;;;;;;;;;;;;;;4973634;28;20054;-70
2022/03/08 04:55:07;;;;;;;9.25;5.95;;;;;;;;;;4968902;28;19929;-70
2022/03/08 04:57:33;;;;;;;10.27;5.13;;;;;;;;;;4978678;28;20129;-70
2022/03/08 05:00:00;;;;;;;9.20;5.47;;;;;;;;;;4983705;28;20691;-70
2022/03/08 05:02:26;;;;;;;8.88;5.22;;;;;;;;;;4979980;28;20122;-70
2022/03/08 05:04:52;;;;;;;8.98;5.53;;;;;;;;;;4966322;28;20161;-70
2022/03/08 05:07:19;;;;;;;11.45;6.22;;;;;;;;;;4974482;28;20088;-70
2022/03/08 05:09:45;;;;;;;10.52;6.38;;;;;;;;;;4986683;28;20057;-70
2022/03/08 05:12:11;;;;;;;9.25;5.95;;;;;;;;;;4978543;28;20058;-70
2022/03/08 05:14:38;;;;;;;9.65;5.57;;;;;;;;;;4988332;28;20053;-70
2022/03/08 05:17:04;;;;;;;10.90;5.70;;;;;;;;;;4983084;28;20058;-71
2022/03/08 05:19:31;;;;;;;9.50;5.88;;;;;;;;;;4980271;28;20479;-70
2022/03/08 05:21:57;;;;;;;8.20;5.25;;;;;;;;;;4981833;28;20050;-70
2022/03/08 05:24:23;;;;;;;9.05;5.88;;;;;;;;;;4977001;28;20054;-70
2022/03/08 05:26:50;;;;;;;10.25;6.10;;;;;;;;;;4985578;28;20052;-70
2022/03/08 05:29:16;;;;;;;11.30;6.82;;;;;;;;;;4977256;28;20063;-70
2022/03/08 05:31:42;;;;;;;10.90;6.32;;;;;;;;;;4986281;28;20058;-71
2022/03/08 05:34:09;;;;;;;9.52;6.13;;;;;;;;;;4977468;28;20050;-70
2022/03/08 05:36:35;;;;;;;9.43;6.15;;;;;;;;;;4970491;28;20054;-70
2022/03/08 05:39:02;;;;;;;10.55;6.07;;;;;;;;;;4999064;28;20061;-70
2022/03/08 05:41:28;;;;;;;9.75;6.07;;;;;;;;;;4976541;28;20050;-70
2022/03/08 05:43:54;;;;;;;11.10;6.85;;;;;;;;;;4986816;28;20420;-71
2022/03/08 05:46:21;;;;;;;9.32;5.63;;;;;;;;;;4974786;28;20081;-70
2022/03/08 05:48:47;;;;;;;10.10;6.00;;;;;;;;;;4995578;28;20734;-70
2022/03/08 05:51:13;;;;;;;8.98;5.47;;;;;;;;;;4984524;28;20082;-71
2022/03/08 05:53:40;;;;;;;9.98;6.40;;;;;;;;;;4974465;28;20432;-70
2022/03/08 05:56:07;;;;;;;9.45;6.50;;;;;;;;;;4981802;28;20069;-70
2022/03/08 05:58:34;;;;;;;10.88;5.93;;;;;;;;;;4979191;28;20046;-71
2022/03/08 06:01:01;;;;;;;9.90;6.22;;;;;;;;;;4975114;28;20053;-71
2022/03/08 06:03:27;;;;;;;9.40;5.75;;;;;;;;;;4975622;28;20054;-71
2022/03/08 06:05:54;;;;;;;10.43;6.10;;;;;;;;;;4976942;28;20088;-70
2022/03/08 06:08:21;;;;;;;10.40;6.03;;;;;;;;;;4974081;28;20081;-70
2022/03/08 06:10:47;;;;;;;9.77;6.32;;;;;;;;;;4972655;28;20042;-71
2022/03/08 06:13:13;;;;;;;10.18;6.53;;;;;;;;;;4983366;28;20046;-69
2022/03/08 06:15:40;;;;;;;9.63;5.80;;;;;;;;;;4973695;28;20054;-70
2022/03/08 06:18:06;;;;;;;9.77;6.57;;;;;;;;;;4981362;28;20050;-70
2022/03/08 06:20:32;;;;;;;9.05;5.88;;;;;;;;;;4991668;28;20054;-70
2022/03/08 06:22:59;;;;;;;8.98;6.03;;;;;;;;;;4984273;28;20053;-70
2022/03/08 06:25:25;;;;;;;13.77;6.82;;;;;;;;;;4984638;28;20046;-71
2022/03/08 06:27:51;;;;;;;10.50;7.15;;;;;;;;;;4972059;28;20081;-70
2022/03/08 06:30:18;;;;;;;12.48;6.72;;;;;;;;;;4977180;28;20093;-70
2022/03/08 06:32:44;;;;;;;10.88;6.95;;;;;;;;;;4971213;28;20050;-70
2022/03/08 06:35:11;;;;;;;10.20;6.57;;;;;;;;;;4983403;28;20061;-71
2022/03/08 06:37:38;;;;;;;10.73;6.28;;;;;;;;;;4977763;28;20054;-72
2022/03/08 06:40:04;;;;;;;13.15;6.63;;;;;;;;;;4981879;28;20419;-70
2022/03/08 06:42:31;;;;;;;9.65;5.85;;;;;;;;;;4979048;28;20426;-71
2022/03/08 06:44:57;;;;;;;10.43;7.22;;;;;;;;;;4971321;28;20046;-70
2022/03/08 06:47:23;;;;;;;12.88;8.07;;;;;;;;;;4984176;28;20054;-71
2022/03/08 06:49:50;;;;;;;14.57;7.70;;;;;;;;;;4978937;28;20042;-70
2022/03/08 06:52:16;;;;;;;10.05;6.30;;;;;;;;;;4983666;28;20717;-70
2022/03/08 06:54:42;;;;;;;10.27;6.40;;;;;;;;;;4973968;28;20054;-70
2022/03/08 06:57:08;;;;;;;10.95;7.20;;;;;;;;;;4972031;28;20133;-70
2022/03/08 06:59:35;;;;;;;10.90;6.78;;;;;;;;;;4979474;28;20073;-69
2022/03/08 07:02:01;;;;;;;9.88;6.38;;;;;;;;;;4969215;28;20046;-69
2022/03/08 07:04:28;;;;;;;9.63;6.30;;;;;;;;;;4984469;28;20065;-69
2022/03/08 07:06:54;;;;;;;10.80;6.45;;;;;;;;;;4975759;28;20058;-70
2022/03/08 07:09:21;;;;;;;10.65;7.32;;;;;;;;;;4968243;28;20054;-70
2022/03/08 07:11:47;;;;;;;11.50;7.10;;;;;;;;;;4970993;28;20162;-69
2022/03/08 07:14:15;;;;;;;9.70;6.47;;;;;;;;;;4985264;28;20057;-70
2022/03/08 07:16:42;;;;;;;10.50;6.40;;;;;;;;;;4986222;28;20426;-71
2022/03/08 07:19:08;;;;;;;10.50;6.75;;;;;;;;;;4977041;28;20514;-69
2022/03/08 07:21:35;;;;;;;12.45;6.70;;;;;;;;;;4981949;28;20046;-69
2022/03/08 07:24:01;;;;;;;9.52;6.18;;;;;;;;;;4979200;28;20057;-70
2022/03/08 07:26:27;;;;;;;10.65;6.95;;;;;;;;;;4984822;28;20050;-70
2022/03/08 07:28:54;;;;;;;13.20;7.22;;;;;;;;;;4973643;28;20525;-71
2022/03/08 07:31:20;;;;;;;9.43;6.22;;;;;;;;;;4991494;28;20062;-70
2022/03/08 07:33:47;;;;;;;11.88;6.45;;;;;;;;;;4979685;28;20092;-70
2022/03/08 07:36:13;;;;;;;16.50;6.72;;;;;;;;;;4975577;28;20054;-70
2022/03/08 07:38:39;;;;;;;10.43;6.95;;;;;;;;;;4984900;28;20061;-70
2022/03/08 07:41:06;;;;;;;11.65;6.93;;;;;;;;;;4980584;28;20123;-70
2022/03/08 07:43:34;;;;;;;9.80;5.80;;;;;;;;;;4994339;28;20051;-70
2022/03/08 07:46:01;;;;;;;13.30;7.03;;;;;;;;;;4979104;28;20108;-70
2022/03/08 07:48:27;;;;;;;10.60;6.20;;;;;;;;;;4984126;28;20281;-70
2022/03/08 07:50:54;;;;;;;10.90;7.03;;;;;;;;;;4974977;28;20046;-71
2022/03/08 07:53:21;;;;;;;8.63;5.90;;;;;;;;;;4982052;28;20109;-70
2022/03/08 07:55:47;;;;;;;11.63;6.90;;;;;;;;;;4985449;28;20500;-70
2022/03/08 07:58:19;;;;;;;12.48;6.68;;;;;;;;;;4964423;28;20051;-71
2022/03/08 08:00:45;;;;;;;9.88;5.80;;;;;;;;;;4985381;28;20075;-71
2022/03/08 08:03:12;;;;;;;8.95;5.90;;;;;;;;;;4975008;28;20055;-71
2022/03/08 08:05:39;;;;;;;14.70;6.18;;;;;;;;;;4983115;28;20070;-71
2022/03/08 08:08:05;;;;;;;9.73;5.53;;;;;;;;;;4984246;28;20046;-70
2022/03/08 08:10:32;;;;;;;10.07;6.13;;;;;;;;;;4992804;28;20045;-72
2022/03/08 08:12:59;;;;;;;11.07;5.80;;;;;;;;;;4988598;28;20072;-71
2022/03/08 08:15:25;;;;;;;9.68;5.13;;;;;;;;;;4976782;28;20046;-70
2022/03/08 08:17:52;;;;;;;9.05;5.25;;;;;;;;;;4980207;28;20046;-70
2022/03/08 08:20:18;;;;;;;9.73;6.28;;;;;;;;;;4991935;28;20145;-70
2022/03/08 08:22:44;;;;;;;9.15;5.75;;;;;;;;;;4989023;28;20046;-71
2022/03/08 08:25:11;;;;;;;8.90;5.70;;;;;;;;;;4990091;28;20061;-70
2022/03/08 08:27:38;;;;;;;8.77;5.93;;;;;;;;;;4978547;28;20066;-70
2022/03/08 08:30:05;;;;;;;8.68;5.22;;;;;;;;;;4982151;28;20126;-70
2022/03/08 08:32:32;;;;;;;8.90;5.68;;;;;;;;;;4978940;28;20050;-70
2022/03/08 08:34:58;;;;;;;12.20;5.47;;;;;;;;;;4987661;28;20385;-70
2022/03/08 08:37:24;;;;;;;7.65;5.40;;;;;;;;;;4982468;28;20065;-70
2022/03/08 08:39:51;;;;;;;10.25;5.30;;;;;;;;;;4983522;28;20050;-71
2022/03/08 08:42:17;;;;;;;10.43;5.57;;;;;;;;;;4991360;28;20057;-70
2022/03/08 08:44:44;;;;;;;9.57;5.68;;;;;;;;;;4974003;28;20046;-70
2022/03/08 08:47:11;;;;;;;11.45;5.35;;;;;;;;;;5005854;28;20488;-72
2022/03/08 08:49:38;;;;;;;9.88;5.40;;;;;;;;;;4980831;28;20053;-71
2022/03/08 08:52:04;;;;;;;11.27;5.75;;;;;;;;;;4988795;28;20038;-71
2022/03/08 08:54:31;;;;;;;12.20;5.40;;;;;;;;;;4982822;28;20061;-71
2022/03/08 08:56:57;;;;;;;10.13;5.43;;;;;;;;;;4984704;28;20077;-71
2022/03/08 08:59:23;;;;;;;9.38;5.32;;;;;;;;;;4984461;28;20061;-71
2022/03/08 09:01:50;;;;;;;8.98;5.35;;;;;;;;;;4976175;28;20243;-71
2022/03/08 09:04:16;;;;;;;7.05;5.40;;;;;;;;;;5004827;28;20129;-71
2022/03/08 09:06:43;;;;;;;9.98;5.68;;;;;;;;;;4984608;28;20052;-71
2022/03/08 09:09:09;;;;;;;9.45;5.40;;;;;;;;;;4988231;28;20054;-71
2022/03/08 09:11:36;;;;;;;14.85;6.00;;;;;;;;;;4975119;28;20058;-71
2022/03/08 09:14:04;;;;;;;8.70;5.10;;;;;;;;;;4970531;28;20567;-71
2022/03/08 09:16:31;;;;;;;8.52;5.40;;;;;;;;;;4982956;28;20107;-71
2022/03/08 09:18:58;;;;;;;8.02;5.28;;;;;;;;;;4984460;28;20061;-71
2022/03/08 09:21:24;;;;;;;10.35;5.60;;;;;;;;;;4988175;28;20058;-71
2022/03/08 09:23:50;;;;;;;7.75;5.25;;;;;;;;;;4979095;28;20793;-71
2022/03/08 09:26:17;;;;;;;7.75;5.07;;;;;;;;;;4982501;28;20057;-71
2022/03/08 09:28:43;;;;;;;9.75;5.13;;;;;;;;;;4978374;28;20057;-71
2022/03/08 09:31:09;;;;;;;9.18;5.22;;;;;;;;;;4989080;28;20691;-71
2022/03/08 09:33:36;;;;;;;8.15;5.07;;;;;;;;;;4986267;28;20193;-71
2022/03/08 09:36:02;;;;;;;10.27;5.28;;;;;;;;;;4982075;28;20038;-71
2022/03/08 09:38:28;;;;;;;8.55;5.10;;;;;;;;;;4982378;28;20051;-71
2022/03/08 09:40:55;;;;;;;8.20;5.50;;;;;;;;;;4972340;28;20056;-71
2022/03/08 09:43:22;;;;;;;8.25;5.80;;;;;;;;;;4985686;28;20050;-71
2022/03/08 09:45:48;;;;;;;8.98;5.28;;;;;;;;;;4980284;28;20056;-71
2022/03/08 09:48:16;;;;;;;7.97;4.88;;;;;;;;;;4989140;28;20042;-71
2022/03/08 09:50:43;;;;;;;9.93;5.10;;;;;;;;;;4987514;28;20510;-71
2022/03/08 09:53:11;;;;;;;8.20;5.25;;;;;;;;;;4968913;28;20046;-71
2022/03/08 09:55:38;;;;;;;8.43;5.40;;;;;;;;;;4981020;28;20137;-71
2022/03/08 09:58:07;;;;;;;9.85;5.75;;;;;;;;;;4997360;28;20046;-71
2022/03/08 10:00:33;;;;;;;8.32;5.57;;;;;;;;;;4986497;28;20125;-72
2022/03/08 10:03:00;;;;;;;7.20;4.85;;;;;;;;;;4979820;28;20053;-71
2022/03/08 10:05:40;;;;;;;9.05;5.72;;;;;;;;;;4987918;28;20077;-71
2022/03/08 10:08:13;;;;;;;13.85;5.75;;;;;;;;;;4977544;28;20073;-71
2022/03/08 10:10:45;;;;;;;10.43;5.75;;;;;;;;;;4983167;28;20050;-71
2022/03/08 10:13:21;;;;;;;11.43;5.50;;;;;;;;;;4986484;28;20193;-71
2022/03/08 10:16:03;;;;;;;12.18;5.97;;;;;;;;;;4994372;28;20046;-71
2022/03/08 10:18:33;;;;;;;6.88;4.93;;;;;;;;;;4986645;28;20054;-71
2022/03/08 10:20:59;;;;;;;8.38;5.82;;;;;;;;;;4975747;28;20046;-71
2022/03/08 10:23:26;;;;;;;10.70;5.45;;;;;;;;;;4993612;28;20064;-72
2022/03/08 10:25:52;;;;;;;8.63;5.55;;;;;;;;;;4986179;28;20054;-71
2022/03/08 10:28:19;;;;;;;8.32;5.70;;;;;;;;;;4986567;28;20058;-71
2022/03/08 10:30:45;;;;;;;7.93;5.20;;;;;;;;;;4984791;28;20053;-71
2022/03/08 10:33:36;;;;;;;11.60;5.18;;;;;;;;;;4976600;28;20529;-71
2022/03/08 10:36:03;;;;;;;12.50;5.25;;;;;;;;;;4974937;28;20057;-72
2022/03/08 10:38:29;;;;;;;13.07;5.45;;;;;;;;;;4978081;28;20125;-72
2022/03/08 10:40:55;;;;;;;8.05;5.40;;;;;;;;;;4993095;28;20046;-72
2022/03/08 10:43:22;;;;;;;9.43;5.75;;;;;;;;;;4979271;28;20047;-72
2022/03/08 10:45:50;;;;;;;10.60;5.72;;;;;;;;;;4988121;28;20046;-72
2022/03/08 10:48:18;;;;;;;9.02;5.18;;;;;;;;;;4970538;28;20050;-72
2022/03/08 10:50:46;;;;;;;8.70;5.32;;;;;;;;;;4981300;28;20257;-72
2022/03/08 10:53:13;;;;;;;13.90;5.53;;;;;;;;;;4983776;28;20050;-72
2022/03/08 10:55:45;;;;;;;7.38;5.20;;;;;;;;;;4973133;28;20129;-72
2022/03/08 10:58:12;;;;;;;10.85;5.10;;;;;;;;;;4986854;28;20488;-72
2022/03/08 11:00:39;;;;;;;9.38;5.22;;;;;;;;;;4979696;28;20543;-72
2022/03/08 11:03:08;;;;;;;6.03;4.45;;;;;;;;;;4974215;28;20043;-72
2022/03/08 11:05:35;;;;;;;;;;;;;;;;;;4974759;28;20046;-72
2022/03/08 11:08:01;;;;;;;9.88;4.47;;;;;;;;;;4987234;28;20398;-72
2022/03/08 11:10:28;;;;;;;9.68;4.10;;;;;;;;;;4986941;28;20056;-72
2022/03/08 11:12:56;;;;;;;6.20;3.78;;;;;;;;;;4980274;28;20052;-72
2022/03/08 11:15:23;;;;;;;7.50;4.43;;;;;;;;;;4984905;28;20129;-72
2022/03/08 11:17:50;;;;;;;8.40;3.75;;;;;;;;;;4959258;28;20061;-70
2022/03/08 11:20:18;;;;;;;8.07;3.92;;;;;;;;;;4983505;28;20759;-70
2022/03/08 11:22:45;;;;;;;11.15;4.43;;;;;;;;;;4980797;28;20046;-70
2022/03/08 11:25:12;;;;;;;9.27;3.85;;;;;;;;;;4983268;28;20050;-70
2022/03/08 11:28:00;;;;;;;6.47;3.72;;;;;;;;;;4973361;28;20061;-70
2022/03/08 11:30:28;;;;;;;7.13;4.43;;;;;;;;;;4984392;28;20389;-69
2022/03/08 11:33:11;;;;;;;8.45;3.92;;;;;;;;;;4982334;28;20046;-70
2022/03/08 11:35:56;;;;;;;7.88;4.35;;;;;;;;;;4967705;28;20058;-72
2022/03/08 11:38:23;;;;;;;6.03;4.03;;;;;;;;;;4995580;28;20402;-71
2022/03/08 11:40:58;;;;;;;8.07;4.40;;;;;;;;;;4982560;28;20058;-72
2022/03/08 11:43:37;;;;;;;8.02;4.55;;;;;;;;;;4977826;28;20055;-70
2022/03/08 11:46:14;;;;;;;9.57;3.65;;;;;;;;;;4974272;28;20058;-70
2022/03/08 11:48:51;;;;;;;6.18;4.00;;;;;;;;;;4973530;28;20456;-70
2022/03/08 11:51:18;;;;;;;5.70;4.05;;;;;;;;;;4982831;28;20053;-70
2022/03/08 11:53:47;;;;;;;6.90;3.95;;;;;;;;;;4988630;28;20050;-70
2022/03/08 11:56:17;;;;;;;9.65;4.25;;;;;;;;;;4990080;28;20609;-70
2022/03/08 11:58:50;;;;;;;6.80;4.22;;;;;;;;;;4983055;28;20043;-70
2022/03/08 12:01:25;;;;;;;5.80;4.38;;;;;;;;;;4999948;28;20037;-70
2022/03/08 12:03:56;;;;;;;6.90;4.63;;;;;;;;;;4981181;28;20046;-70
2022/03/08 12:06:33;;;;;;;6.20;4.75;;;;;;;;;;4991876;28;20050;-71
2022/03/08 12:09:08;;;;;;;6.85;4.43;;;;;;;;;;4984736;28;20495;-69
2022/03/08 12:11:36;;;;;;;5.28;3.53;;;;;;;;;;4991699;28;20038;-69
2022/03/08 12:14:26;;;;;;;5.88;4.28;;;;;;;;;;4978529;28;20053;-69
2022/03/08 12:17:04;;;;;;;6.20;4.40;;;;;;;;;;4988716;28;20042;-70
2022/03/08 12:19:31;;;;;;;;;;;;;;;;;;5002642;28;20048;-70
2022/03/08 12:21:57;;;;;;;9.32;4.72;;;;;;;;;;4988805;28;19980;-70
2022/03/08 12:24:24;;;;;;;9.23;4.35;;;;;;;;;;4986125;28;20050;-70
2022/03/08 12:26:51;;;;;;;6.45;4.18;;;;;;;;;;4974854;28;20043;-70
2022/03/08 12:29:46;;;;;;;6.72;3.90;;;;;;;;;;4980080;28;20054;-70
2022/03/08 12:32:23;;;;;;;7.63;4.28;;;;;;;;;;4990960;28;20062;-70
2022/03/08 12:34:51;;;;;;;5.55;4.03;;;;;;;;;;4984714;28;20558;-70
2022/03/08 12:37:36;;;;;;;9.77;4.47;;;;;;;;;;4999894;28;20050;-70
2022/03/08 12:40:09;;;;;;;6.15;4.30;;;;;;;;;;4982221;28;20061;-70
2022/03/08 12:42:38;;;;;;;7.68;4.30;;;;;;;;;;4979018;28;20078;-70
2022/03/08 12:45:21;;;;;;;10.05;4.18;;;;;;;;;;4980318;28;20075;-70
2022/03/08 12:48:02;;;;;;;6.90;4.43;;;;;;;;;;4982011;28;20487;-70
2022/03/08 12:50:31;;;;;;;12.25;4.63;;;;;;;;;;4986627;28;20050;-70
2022/03/08 12:53:00;;;;;;;7.55;4.97;;;;;;;;;;4979149;28;20084;-70
2022/03/08 12:55:28;;;;;;;7.15;4.90;;;;;;;;;;4998279;28;20551;-70
2022/03/08 12:57:55;;;;;;;7.07;4.78;;;;;;;;;;4985674;28;20061;-70
2022/03/08 13:00:30;;;;;;;9.50;4.10;;;;;;;;;;4979921;28;20057;-70
2022/03/08 13:02:56;;;;;;;6.68;4.57;;;;;;;;;;4988952;28;20070;-70
2022/03/08 13:05:27;;;;;;;6.60;4.20;;;;;;;;;;4978650;28;20082;-70
2022/03/08 13:07:54;;;;;;;8.68;4.68;;;;;;;;;;4987057;28;20148;-70
2022/03/08 13:10:21;;;;;;;9.75;5.20;;;;;;;;;;4997579;28;20057;-70
2022/03/08 13:12:55;;;;;;;8.23;5.05;;;;;;;;;;4983028;28;20137;-70
2022/03/08 13:15:23;;;;;;;6.60;4.53;;;;;;;;;;4986594;28;20065;-70
2022/03/08 13:17:54;;;;;;;8.80;4.80;;;;;;;;;;4967557;28;20072;-70
2022/03/08 13:20:31;;;;;;;10.75;4.53;;;;;;;;;;4989543;28;20049;-70
2022/03/08 13:23:00;;;;;;;9.75;5.20;;;;;;;;;;4990576;28;20072;-70
2022/03/08 13:25:26;;;;;;;;;;;;;;;;;;4990317;28;20050;-70
2022/03/08 13:27:54;;;;;;;6.97;4.35;;;;;;;;;;4986850;28;19926;-70
2022/03/08 13:30:31;;;;;;;6.45;4.40;;;;;;;;;;4970877;28;20055;-70
2022/03/08 13:33:11;;;;;;;7.63;5.15;;;;;;;;;;4980637;28;20054;-70
2022/03/08 13:35:39;;;;;;;6.65;4.72;;;;;;;;;;4975751;28;20106;-70
2022/03/08 13:38:08;;;;;;;7.88;4.50;;;;;;;;;;4989190;28;20447;-70
2022/03/08 13:40:34;;;;;;;8.50;5.32;;;;;;;;;;4981773;28;20477;-70
2022/03/08 13:43:04;;;;;;;9.50;4.78;;;;;;;;;;4977980;28;20066;-70
2022/03/08 13:45:51;;;;;;;8.75;4.97;;;;;;;;;;4974097;28;20420;-70
2022/03/08 13:48:24;;;;;;;8.25;5.07;;;;;;;;;;4967776;28;20090;-70
2022/03/08 13:50:51;;;;;;;6.60;4.88;;;;;;;;;;4979995;28;20046;-71
2022/03/08 13:53:17;;;;;;;9.27;4.93;;;;;;;;;;4988271;28;20123;-70
2022/03/08 13:55:44;;;;;;;8.32;5.05;;;;;;;;;;4987609;28;20046;-70
2022/03/08 13:58:33;;;;;;;10.35;4.78;;;;;;;;;;4981116;28;20057;-70
2022/03/08 14:01:03;;;;;;;7.15;5.05;;;;;;;;;;4967483;28;20065;-70
2022/03/08 14:03:36;;;;;;;7.32;4.82;;;;;;;;;;4972973;28;20054;-70
2022/03/08 14:06:03;;;;;;;6.40;4.88;;;;;;;;;;4989801;28;20050;-70
2022/03/08 14:08:29;;;;;;;8.98;5.18;;;;;;;;;;4980224;28;20186;-70
2022/03/08 14:11:00;;;;;;;5.93;4.35;;;;;;;;;;4987482;28;20522;-69
2022/03/08 14:13:28;;;;;;;10.02;4.88;;;;;;;;;;4984275;28;20034;-70
2022/03/08 14:15:59;;;;;;;7.15;5.30;;;;;;;;;;4975808;28;20034;-71
2022/03/08 14:18:26;;;;;;;6.82;4.82;;;;;;;;;;4994782;28;20129;-69
2022/03/08 14:20:53;;;;;;;8.18;4.53;;;;;;;;;;4981110;28;20050;-69
2022/03/08 14:23:19;;;;;;;8.90;4.65;;;;;;;;;;4989460;28;20050;-69
2022/03/08 14:26:05;;;;;;;7.35;5.03;;;;;;;;;;4979119;28;20538;-69
2022/03/08 14:28:42;;;;;;;19.52;5.93;;;;;;;;;;4971669;28;20138;-69
2022/03/08 14:31:19;;;;;;;7.30;5.20;;;;;;;;;;4971559;28;20419;-71
2022/03/08 14:33:56;;;;;;;12.68;5.65;;;;;;;;;;4977573;28;20503;-69
2022/03/08 14:36:29;;;;;;;8.65;4.80;;;;;;;;;;4986525;28;20058;-70
2022/03/08 14:38:55;;;;;;;10.43;5.60;;;;;;;;;;4986541;28;20054;-70
2022/03/08 14:41:25;;;;;;;16.90;5.40;;;;;;;;;;4971073;28;20277;-69